Jeanerette, Louisiana
Current Conditions -  °F | °C
As of 1:53 PM on Friday 31 Oct 2014 (Local Time) from KARA Reporting Station
Clear Clear  
Wind Chill: 76°   Ceiling: Unl
Heat Index: 76°   Visibility: 10mi
Dew Point: 44°   Wind: 16mph
Humidity: 32%   Direction: 340°NNW
Pressure: 30.08"   Gusts: 23mph
Location:  29.91°N, 91.66°W
Report Text: KARA 311853Z 34014G20KT 10SM CLR 24/07 A3008 RMK AO2 SLP184 T02440067
Loading
Personal Weather Stations






























Interactive Weather Map New forecast layout! Learn more

10-Day Weather Forecast

Advertisements
Track Severe Weather on mobile